Mary's Harbour Airport

Airport
ICAO code: 
CYMH
IATA Code: 
YMH
Summary
ICAO Region: 
NAM
Territory: 
Location: 
Mary's Harbour, Labrador
Serving: 
Mary's Harbour
Elevation: 
38 ft
Coordinates: 
Aerial View: 
52° 18' 10.008" N, 55° 50' 49.992" W
Metar
Observation
CYMH 271000Z AUTO 00000KT 1/2SM FG VV003 03/03 A2944 RMK SLP972
Station
Mary's Harbour
Date/Time
2021-11-27 10:00:00
Wind direction
Wind speed
00 kts
Lowest cloud amount
n/a
Temperature
3°C
Dew point
3°C
Humidity
100%
Weather condition
fog

Description

Newfoundland and Labrador is home to a variety of climates and weather. One of the main reasons for this diversity is the geography of the province. The island portion of the province spans 5 degrees of latitude, which is comparable to that of the Great Lakes. The province has been divided into six climate types, but in broader terms Newfoundland has a cool summer subtype of a humid continental climate, which is greatly influenced by the sea since no part of the island is more than 100 km from the ocean. Northern Labrador is classified as a polar tundra climate, southern Labrador has a subarctic climate.

Climatology

Subarctic climate (Köppen climate classification Dfb) - long, usually very cold winters, and short, cool to mild summers.

Runways

Designator Length Width Surface Rops
11/29 762 23 GRAVEL No/No
Airport map: 
Aerial View: 

SKYbrary Partners:

Safety knowledge contributed by: